McKinney's Hourly Summary for Sunday, May 13, 2018
Hour Temp
(f)
RH
(%)
Solar Rad.
(MJ/m2)
Rainfall
(in)
Wind
(mph)
5/13/2018 12:00 AM 74 72 0 0 3.05
5/13/2018 1:00 AM 73 75 0 0 3.79
5/13/2018 2:00 AM 74 76 0 0 5.71
5/13/2018 3:00 AM 73 78 0 0 6.94
5/13/2018 4:00 AM 72 82 0 0 5.44
5/13/2018 5:00 AM 72 86 0 0 5.75
5/13/2018 6:00 AM 71 88 0 0 5.73
5/13/2018 7:00 AM 71 92 0.03 0 5.83
5/13/2018 8:00 AM 71 85 0.38 0 5.35
5/13/2018 9:00 AM 73 80 0.75 0 7.4
5/13/2018 10:00 AM 75 73 1.24 0 7.26
5/13/2018 11:00 AM 78 66 2.25 0 8.37
5/13/2018 12:00 PM 80 61 2.23 0 8.59
5/13/2018 1:00 PM 81 61 2.12 0 9.59
5/13/2018 2:00 PM 83 55 2.54 0 9.98
5/13/2018 3:00 PM 85 53 2.71 0 10.64
5/13/2018 4:00 PM 86 50 2.52 0 10.82
5/13/2018 5:00 PM 86 49 2.08 0 10.47
5/13/2018 6:00 PM 86 49 1.4 0 10.24
5/13/2018 7:00 PM 85 50 0.79 0 9.41
5/13/2018 8:00 PM 83 55 0.2 0 7.3
5/13/2018 9:00 PM 80 61 0 0 5.26
5/13/2018 10:00 PM 78 66 0 0 4.07
5/13/2018 11:00 PM 75 71 0 0 2.71
Data Summary 77 68 21.24 0.00 7.07